createdAt,value
2023-04-30T00:00:11.819Z,91.21
2023-04-30T00:01:11.803Z,91.31
2023-04-30T00:02:11.831Z,91.00
2023-04-30T00:03:11.847Z,91.11
2023-04-30T00:04:11.769Z,91.00
2023-04-30T00:05:11.737Z,91.21
2023-04-30T00:06:11.768Z,91.21
2023-04-30T00:07:11.696Z,90.90
2023-04-30T00:08:11.676Z,91.21
2023-04-30T00:09:11.661Z,90.90
2023-04-30T00:10:11.642Z,90.90
2023-04-30T00:11:11.630Z,90.69
2023-04-30T00:12:11.651Z,91.00
2023-04-30T00:13:11.661Z,90.90
2023-04-30T00:14:11.576Z,91.11
2023-04-30T00:15:11.561Z,91.21
2023-04-30T00:16:11.583Z,91.11
2023-04-30T00:17:11.527Z,91.11
2023-04-30T00:18:11.573Z,90.90
2023-04-30T00:19:11.518Z,91.11
2023-04-30T00:20:11.471Z,91.21
2023-04-30T00:21:11.458Z,91.25
2023-04-30T00:22:11.436Z,91.05
2023-04-30T00:23:11.425Z,90.94
2023-04-30T00:24:11.409Z,91.15
2023-04-30T00:25:11.391Z,91.05
2023-04-30T00:26:11.368Z,91.05
2023-04-30T00:27:11.352Z,91.15
2023-04-30T00:28:11.373Z,91.05
2023-04-30T00:29:11.316Z,91.30
2023-04-30T00:30:11.308Z,90.99
2023-04-30T00:31:11.289Z,91.09
2023-04-30T00:32:11.321Z,91.46
2023-04-30T00:33:11.313Z,91.40
2023-04-30T00:34:11.239Z,91.71
2023-04-30T00:35:11.249Z,91.56
2023-04-30T00:36:11.219Z,91.25
2023-04-30T00:37:11.175Z,91.91
2023-04-30T00:38:11.167Z,91.46
2023-04-30T00:39:11.147Z,91.60
2023-04-30T00:40:11.132Z,91.60
2023-04-30T00:41:11.173Z,91.50
2023-04-30T00:42:11.097Z,91.50
2023-04-30T00:43:11.070Z,91.46
2023-04-30T00:44:11.058Z,91.60
2023-04-30T00:45:11.038Z,91.81
2023-04-30T00:46:11.060Z,91.40
2023-04-30T00:47:11.015Z,91.09
2023-04-30T00:48:10.983Z,91.30
2023-04-30T00:49:10.968Z,91.30
2023-04-30T00:50:10.958Z,91.09
2023-04-30T00:51:10.935Z,91.19
2023-04-30T00:52:10.970Z,91.19
2023-04-30T00:53:10.896Z,91.09
2023-04-30T00:54:10.889Z,91.19
2023-04-30T00:55:10.866Z,91.19
2023-04-30T00:56:10.850Z,91.24
2023-04-30T00:57:10.827Z,91.24
2023-04-30T00:58:10.854Z,91.34
2023-04-30T00:59:10.810Z,91.13
2023-04-30T01:00:10.778Z,91.13
2023-04-30T01:01:10.809Z,91.24
2023-04-30T01:02:10.768Z,90.92
2023-04-30T01:03:10.809Z,91.13
2023-04-30T01:04:10.736Z,91.60
2023-04-30T01:05:10.689Z,91.64
2023-04-30T01:06:10.705Z,91.64
2023-04-30T01:07:10.656Z,91.85
2023-04-30T01:08:10.634Z,91.54
2023-04-30T01:09:10.617Z,91.54
2023-04-30T01:10:10.600Z,91.54
2023-04-30T01:11:10.585Z,91.64
2023-04-30T01:12:10.568Z,91.64
2023-04-30T01:13:10.549Z,91.64
2023-04-30T01:14:10.594Z,91.75
2023-04-30T01:15:10.523Z,91.79
2023-04-30T01:16:10.552Z,91.85
2023-04-30T01:17:10.476Z,91.96
2023-04-30T01:18:10.565Z,92.10
2023-04-30T01:19:10.469Z,91.85
2023-04-30T01:20:10.428Z,91.96
2023-04-30T01:21:10.437Z,92.27
2023-04-30T01:22:10.467Z,92.41
2023-04-30T01:23:10.366Z,92.47
2023-04-30T01:24:10.359Z,92.47
2023-04-30T01:25:10.400Z,92.57
2023-04-30T01:26:10.316Z,92.47
2023-04-30T01:27:10.296Z,92.47
2023-04-30T01:28:10.287Z,92.37
2023-04-30T01:29:10.259Z,92.47
2023-04-30T01:30:10.242Z,92.47
2023-04-30T01:31:10.300Z,92.31
2023-04-30T01:32:10.207Z,92.21
2023-04-30T01:33:10.246Z,92.00
2023-04-30T01:34:10.192Z,92.10
2023-04-30T01:35:10.191Z,92.00
2023-04-30T01:36:10.153Z,92.31
2023-04-30T01:37:10.154Z,91.96
2023-04-30T01:38:10.120Z,92.31
2023-04-30T01:39:10.084Z,92.21
2023-04-30T01:40:10.088Z,92.10
2023-04-30T01:41:10.086Z,92.00
2023-04-30T01:42:10.049Z,92.00
2023-04-30T01:43:10.083Z,91.89
2023-04-30T01:44:10.000Z,92.00
2023-04-30T01:45:09.989Z,92.00
2023-04-30T01:46:09.993Z,91.89
2023-04-30T01:47:09.950Z,91.89
2023-04-30T01:48:09.941Z,92.41
2023-04-30T01:49:09.941Z,91.79
2023-04-30T01:50:09.939Z,92.10
2023-04-30T01:51:09.880Z,92.00
2023-04-30T01:52:09.859Z,91.79
2023-04-30T01:53:09.901Z,91.83
2023-04-30T01:54:09.837Z,91.79
2023-04-30T01:55:09.813Z,91.94
2023-04-30T01:56:09.791Z,92.04
2023-04-30T01:57:09.770Z,92.04
2023-04-30T01:58:09.757Z,91.94
2023-04-30T01:59:09.743Z,92.04
2023-04-30T02:00:09.718Z,92.14
2023-04-30T02:01:09.748Z,92.35
2023-04-30T02:02:09.681Z,92.14
2023-04-30T02:03:09.811Z,92.14
2023-04-30T02:04:09.652Z,92.46
2023-04-30T02:05:09.632Z,91.94
2023-04-30T02:06:09.649Z,92.04
2023-04-30T02:07:09.591Z,92.04
2023-04-30T02:08:09.584Z,91.94
2023-04-30T02:09:09.585Z,91.98
2023-04-30T02:10:09.766Z,92.08
2023-04-30T02:11:09.523Z,91.88
2023-04-30T02:12:09.505Z,92.14
2023-04-30T02:13:09.494Z,91.67
2023-04-30T02:14:09.524Z,91.88
2023-04-30T02:15:09.449Z,92.29
2023-04-30T02:16:09.462Z,91.98
2023-04-30T02:17:09.420Z,91.98
2023-04-30T02:18:09.433Z,91.88
2023-04-30T02:19:09.396Z,91.88
2023-04-30T02:20:09.390Z,91.98
2023-04-30T02:21:09.344Z,91.98
2023-04-30T02:22:09.327Z,91.88
2023-04-30T02:23:09.306Z,92.29
2023-04-30T02:24:09.301Z,92.13
2023-04-30T02:25:09.324Z,91.92
2023-04-30T02:26:09.276Z,92.02
2023-04-30T02:27:09.234Z,92.23
2023-04-30T02:28:09.220Z,92.68
2023-04-30T02:29:09.197Z,92.68
2023-04-30T02:30:09.184Z,92.79
2023-04-30T02:31:09.189Z,93.10
2023-04-30T02:32:09.144Z,93.10
2023-04-30T02:33:09.184Z,93.20
2023-04-30T02:34:09.106Z,93.62
2023-04-30T02:35:09.095Z,93.41
2023-04-30T02:36:09.126Z,93.30
2023-04-30T02:37:09.062Z,93.20
2023-04-30T02:38:09.034Z,92.48
2023-04-30T02:39:09.016Z,92.48
2023-04-30T02:40:09.001Z,92.68
2023-04-30T02:41:08.981Z,92.68
2023-04-30T02:42:09.000Z,92.89
2023-04-30T02:43:08.946Z,92.79
2023-04-30T02:44:08.926Z,93.41
2023-04-30T02:45:08.938Z,93.24
2023-04-30T02:46:08.939Z,93.10
2023-04-30T02:47:08.876Z,92.83
2023-04-30T02:48:08.922Z,92.68
2023-04-30T02:49:08.839Z,92.72
2023-04-30T02:50:08.828Z,92.67
2023-04-30T02:51:08.805Z,92.11
2023-04-30T02:52:08.784Z,92.36
2023-04-30T02:53:08.772Z,93.33
2023-04-30T02:54:08.784Z,93.95
2023-04-30T02:55:08.734Z,93.74
2023-04-30T02:56:08.715Z,93.95
2023-04-30T02:57:08.696Z,94.06
2023-04-30T02:58:08.684Z,94.47
2023-04-30T02:59:08.684Z,93.64
2023-04-30T03:00:08.674Z,94.47
2023-04-30T03:01:08.642Z,94.16
2023-04-30T03:02:08.642Z,94.47
2023-04-30T03:03:08.678Z,94.57
2023-04-30T03:04:08.579Z,94.26
2023-04-30T03:05:08.618Z,93.74
2023-04-30T03:06:08.587Z,94.12
2023-04-30T03:07:08.521Z,94.43
2023-04-30T03:08:08.493Z,94.53
2023-04-30T03:09:08.480Z,94.73
2023-04-30T03:10:08.460Z,94.63
2023-04-30T03:11:08.469Z,94.22
2023-04-30T03:12:08.426Z,94.01
2023-04-30T03:13:08.410Z,94.43
2023-04-30T03:14:08.394Z,94.32
2023-04-30T03:15:08.404Z,94.12
2023-04-30T03:16:08.413Z,94.12
2023-04-30T03:17:08.329Z,94.12
2023-04-30T03:18:08.380Z,94.12
2023-04-30T03:19:08.296Z,93.91
2023-04-30T03:20:08.288Z,93.80
2023-04-30T03:21:08.258Z,93.29
2023-04-30T03:22:08.247Z,93.49
2023-04-30T03:23:08.227Z,93.18
2023-04-30T03:24:08.208Z,93.02
2023-04-30T03:25:08.214Z,92.77
2023-04-30T03:26:08.170Z,93.18
2023-04-30T03:27:08.179Z,93.33
2023-04-30T03:28:08.137Z,93.12
2023-04-30T03:29:08.127Z,93.23
2023-04-30T03:30:08.104Z,92.97
2023-04-30T03:31:08.111Z,93.33
2023-04-30T03:32:08.101Z,93.29
2023-04-30T03:33:08.228Z,93.33
2023-04-30T03:34:08.028Z,92.91
2023-04-30T03:35:08.016Z,92.81
2023-04-30T03:36:07.991Z,93.64
2023-04-30T03:37:08.001Z,93.23
2023-04-30T03:38:07.981Z,93.23
2023-04-30T03:39:07.937Z,93.23
2023-04-30T03:40:07.929Z,93.23
2023-04-30T03:41:07.905Z,93.12
2023-04-30T03:42:07.910Z,93.23
2023-04-30T03:43:07.896Z,93.02
2023-04-30T03:44:07.905Z,92.76
2023-04-30T03:45:07.828Z,92.76
2023-04-30T03:46:07.951Z,92.40
2023-04-30T03:47:07.790Z,92.44
2023-04-30T03:48:07.804Z,92.24
2023-04-30T03:49:07.756Z,92.13
2023-04-30T03:50:07.784Z,92.03
2023-04-30T03:51:07.715Z,92.24
2023-04-30T03:52:07.702Z,92.38
2023-04-30T03:53:07.689Z,92.38
2023-04-30T03:54:07.664Z,92.38
2023-04-30T03:55:07.659Z,92.38
2023-04-30T03:56:07.630Z,92.38
2023-04-30T03:57:07.615Z,92.49
2023-04-30T03:58:07.595Z,92.38
2023-04-30T03:59:07.572Z,92.69
2023-04-30T04:00:07.553Z,93.00
2023-04-30T04:01:07.565Z,92.85
2023-04-30T04:02:07.613Z,92.90
2023-04-30T04:03:07.536Z,93.00
2023-04-30T04:04:07.504Z,92.84
2023-04-30T04:05:07.458Z,93.00
2023-04-30T04:06:07.454Z,93.52
2023-04-30T04:07:07.475Z,93.52
2023-04-30T04:08:07.402Z,93.41
2023-04-30T04:09:07.386Z,93.62
2023-04-30T04:10:07.379Z,93.62
2023-04-30T04:11:07.349Z,93.62
2023-04-30T04:12:07.330Z,93.41
2023-04-30T04:13:07.320Z,93.93
2023-04-30T04:14:07.294Z,94.04
2023-04-30T04:15:07.280Z,94.14
2023-04-30T04:16:07.332Z,94.45
2023-04-30T04:17:07.238Z,94.14
2023-04-30T04:18:07.294Z,93.83
2023-04-30T04:19:07.197Z,94.45
2023-04-30T04:20:07.183Z,94.66
2023-04-30T04:21:07.169Z,94.66
2023-04-30T04:22:07.147Z,94.76
2023-04-30T04:23:07.129Z,94.87
2023-04-30T04:24:07.139Z,95.49
2023-04-30T04:25:07.094Z,94.76
2023-04-30T04:26:07.095Z,95.14
2023-04-30T04:27:07.053Z,95.14
2023-04-30T04:28:07.029Z,95.18
2023-04-30T04:29:07.048Z,95.39
2023-04-30T04:30:07.008Z,95.39
2023-04-30T04:31:06.977Z,95.44
2023-04-30T04:32:07.160Z,95.54
2023-04-30T04:33:06.997Z,95.34
2023-04-30T04:34:06.922Z,95.14
2023-04-30T04:35:06.945Z,95.24
2023-04-30T04:36:06.884Z,95.24
2023-04-30T04:37:06.861Z,95.14
2023-04-30T04:38:06.857Z,95.19
2023-04-30T04:39:06.880Z,95.24
2023-04-30T04:40:06.809Z,95.19
2023-04-30T04:41:06.789Z,95.19
2023-04-30T04:42:06.771Z,95.40
2023-04-30T04:43:06.759Z,95.19
2023-04-30T04:44:06.736Z,95.19
2023-04-30T04:45:06.709Z,95.19
2023-04-30T04:46:06.706Z,95.40
2023-04-30T04:47:06.682Z,95.09
2023-04-30T04:48:06.690Z,95.19
2023-04-30T04:49:06.637Z,95.19
2023-04-30T04:50:06.636Z,95.04
2023-04-30T04:51:06.614Z,95.36
2023-04-30T04:52:06.611Z,95.04
2023-04-30T04:53:06.571Z,95.36
2023-04-30T04:54:06.542Z,95.25
2023-04-30T04:55:06.554Z,94.84
2023-04-30T04:56:06.539Z,94.63
2023-04-30T04:57:06.497Z,94.57
2023-04-30T04:58:06.468Z,94.57
2023-04-30T04:59:06.461Z,94.57
2023-04-30T05:00:06.446Z,94.57
2023-04-30T05:01:06.452Z,94.57
2023-04-30T05:02:06.459Z,94.78
2023-04-30T05:03:06.439Z,94.57
2023-04-30T05:04:06.381Z,95.09
2023-04-30T05:05:06.346Z,95.19
2023-04-30T05:06:06.419Z,95.61
2023-04-30T05:07:06.306Z,95.98
2023-04-30T05:08:06.314Z,95.56
2023-04-30T05:09:06.298Z,96.08
2023-04-30T05:10:06.254Z,96.03
2023-04-30T05:11:06.233Z,97.07
2023-04-30T05:12:06.222Z,96.86
2023-04-30T05:13:06.196Z,97.28
2023-04-30T05:14:06.250Z,97.23
2023-04-30T05:15:06.160Z,97.13
2023-04-30T05:16:06.170Z,97.23
2023-04-30T05:17:06.125Z,97.13
2023-04-30T05:18:06.140Z,97.19
2023-04-30T05:19:06.098Z,97.19
2023-04-30T05:20:06.190Z,96.36
2023-04-30T05:21:06.059Z,96.88
2023-04-30T05:22:06.057Z,96.77
2023-04-30T05:23:06.026Z,96.62
2023-04-30T05:24:05.993Z,96.11
2023-04-30T05:25:06.034Z,95.49
2023-04-30T05:26:05.969Z,95.59
2023-04-30T05:27:05.939Z,95.70
2023-04-30T05:28:05.927Z,94.97
2023-04-30T05:29:05.905Z,95.14
2023-04-30T05:30:05.895Z,94.82
2023-04-30T05:31:05.928Z,94.31
2023-04-30T05:32:05.885Z,94.42
2023-04-30T05:33:05.859Z,94.31
2023-04-30T05:34:05.842Z,94.21
2023-04-30T05:35:05.801Z,94.21
2023-04-30T05:36:05.783Z,93.59
2023-04-30T05:37:05.763Z,93.79
2023-04-30T05:38:05.755Z,93.65
2023-04-30T05:39:05.757Z,93.54
2023-04-30T05:40:05.709Z,93.85
2023-04-30T05:41:05.698Z,92.93
2023-04-30T05:42:05.707Z,93.03
2023-04-30T05:43:05.659Z,93.24
2023-04-30T05:44:05.638Z,92.41
2023-04-30T05:45:05.644Z,92.72
2023-04-30T05:46:05.745Z,92.78
2023-04-30T05:47:05.584Z,92.47
2023-04-30T05:48:05.605Z,92.82
2023-04-30T05:49:05.544Z,92.88
2023-04-30T05:50:05.574Z,92.37
2023-04-30T05:51:05.512Z,92.68
2023-04-30T05:52:05.501Z,92.68
2023-04-30T05:53:05.474Z,92.37
2023-04-30T05:54:05.510Z,91.71
2023-04-30T05:55:05.461Z,91.71
2023-04-30T05:56:05.426Z,91.81
2023-04-30T05:57:05.475Z,91.71
2023-04-30T05:58:05.390Z,91.71
2023-04-30T05:59:05.378Z,91.40
2023-04-30T06:00:05.369Z,91.19
2023-04-30T06:01:05.359Z,91.36
2023-04-30T06:02:05.365Z,91.25
2023-04-30T06:03:05.325Z,91.56
2023-04-30T06:04:05.334Z,90.43
2023-04-30T06:05:05.289Z,90.12
2023-04-30T06:06:05.307Z,89.50
2023-04-30T06:07:05.239Z,89.61
2023-04-30T06:08:05.294Z,89.50
2023-04-30T06:09:05.209Z,88.64
2023-04-30T06:10:05.194Z,89.36
2023-04-30T06:11:05.160Z,89.25
2023-04-30T06:12:05.152Z,88.74
2023-04-30T06:13:05.129Z,88.53
2023-04-30T06:14:05.127Z,88.43
2023-04-30T06:15:05.097Z,87.87
2023-04-30T06:16:05.162Z,87.98
2023-04-30T06:17:05.072Z,88.08
2023-04-30T06:18:05.102Z,88.18
2023-04-30T06:19:05.028Z,86.95
2023-04-30T06:20:05.081Z,87.05
2023-04-30T06:21:04.993Z,86.23
2023-04-30T06:22:04.981Z,86.33
2023-04-30T06:23:04.979Z,86.54
2023-04-30T06:24:04.943Z,86.85
2023-04-30T06:25:04.933Z,86.64
2023-04-30T06:26:04.939Z,86.02
2023-04-30T06:27:04.976Z,86.40
2023-04-30T06:28:04.874Z,86.95
2023-04-30T06:29:04.884Z,86.40
2023-04-30T06:30:04.842Z,86.70
2023-04-30T06:31:04.982Z,85.68
2023-04-30T06:32:05.855Z,85.78
2023-04-30T06:33:04.902Z,85.57
2023-04-30T06:34:04.771Z,85.88
2023-04-30T06:35:04.753Z,85.16
2023-04-30T06:36:04.770Z,85.16
2023-04-30T06:37:04.776Z,85.02
2023-04-30T06:38:04.703Z,85.02
2023-04-30T06:39:04.693Z,84.40
2023-04-30T06:40:04.670Z,83.99
2023-04-30T06:41:04.654Z,83.99
2023-04-30T06:42:04.646Z,83.58
2023-04-30T06:43:04.630Z,83.27
2023-04-30T06:44:04.643Z,82.82
2023-04-30T06:45:04.585Z,83.48
2023-04-30T06:46:04.594Z,83.75
2023-04-30T06:47:04.593Z,84.09
2023-04-30T06:48:04.587Z,84.26
2023-04-30T06:49:04.521Z,84.16
2023-04-30T06:50:04.502Z,83.95
2023-04-30T06:51:04.491Z,83.95
2023-04-30T06:52:04.468Z,83.75
2023-04-30T06:53:04.458Z,83.61
2023-04-30T06:54:04.434Z,83.50
2023-04-30T06:55:04.424Z,83.50
2023-04-30T06:56:04.408Z,83.40
2023-04-30T06:57:04.388Z,83.15
2023-04-30T06:58:04.406Z,82.84
2023-04-30T06:59:04.349Z,83.36
2023-04-30T07:00:04.334Z,83.32
2023-04-30T07:01:04.346Z,82.60
2023-04-30T07:02:04.319Z,82.40
2023-04-30T07:03:04.405Z,82.09
2023-04-30T07:04:04.332Z,82.81
2023-04-30T07:05:04.255Z,82.46
2023-04-30T07:06:04.254Z,82.36
2023-04-30T07:07:04.219Z,82.05
2023-04-30T07:08:04.255Z,81.34
2023-04-30T07:09:04.184Z,80.82
2023-04-30T07:10:04.195Z,80.62
2023-04-30T07:11:04.152Z,81.23
2023-04-30T07:12:04.138Z,80.62
2023-04-30T07:13:04.130Z,80.92
2023-04-30T07:14:04.220Z,81.13
2023-04-30T07:15:04.091Z,80.21
2023-04-30T07:16:04.096Z,80.21
2023-04-30T07:17:04.057Z,80.31
2023-04-30T07:18:04.132Z,79.55
2023-04-30T07:19:04.043Z,79.59
2023-04-30T07:20:04.012Z,79.49
2023-04-30T07:21:03.999Z,78.50
2023-04-30T07:22:03.990Z,78.39
2023-04-30T07:23:03.954Z,81.06
2023-04-30T07:24:03.948Z,80.96
2023-04-30T07:25:03.995Z,81.57
2023-04-30T07:26:03.912Z,81.13
2023-04-30T07:27:03.987Z,81.74
2023-04-30T07:28:03.882Z,80.21
2023-04-30T07:29:03.861Z,80.41
2023-04-30T07:30:03.858Z,80.68
2023-04-30T07:31:03.912Z,80.17
2023-04-30T07:32:03.857Z,79.55
2023-04-30T07:33:03.831Z,79.86
2023-04-30T07:34:03.784Z,78.32
2023-04-30T07:35:03.769Z,78.22
2023-04-30T07:36:03.751Z,78.22
2023-04-30T07:37:03.743Z,78.28
2023-04-30T07:38:03.722Z,78.74
2023-04-30T07:39:03.717Z,78.74
2023-04-30T07:40:03.691Z,78.74
2023-04-30T07:41:03.673Z,77.50
2023-04-30T07:42:03.697Z,78.16
2023-04-30T07:43:03.643Z,78.02
2023-04-30T07:44:03.632Z,77.23
2023-04-30T07:45:03.610Z,76.92
2023-04-30T07:46:03.623Z,77.47
2023-04-30T07:47:03.578Z,77.78
2023-04-30T07:48:03.681Z,78.70
2023-04-30T07:49:03.546Z,78.56
2023-04-30T07:50:03.536Z,78.56
2023-04-30T07:51:03.689Z,78.67
2023-04-30T07:52:03.962Z,77.74
2023-04-30T07:53:03.587Z,77.54
2023-04-30T07:54:03.484Z,77.50
2023-04-30T07:55:03.467Z,77.09
2023-04-30T07:56:03.531Z,75.45
2023-04-30T07:57:03.612Z,75.49
2023-04-30T07:58:03.512Z,76.51
2023-04-30T07:59:03.442Z,76.48
2023-04-30T08:00:03.383Z,77.40
2023-04-30T08:01:03.369Z,77.40
2023-04-30T08:02:03.407Z,77.40
2023-04-30T08:03:03.415Z,77.47
2023-04-30T08:04:03.376Z,75.62
2023-04-30T08:05:03.334Z,76.10
2023-04-30T08:06:03.334Z,76.51
2023-04-30T08:07:03.275Z,76.37
2023-04-30T08:08:03.263Z,76.06
2023-04-30T08:09:03.242Z,75.86
2023-04-30T08:10:03.233Z,75.35
2023-04-30T08:11:03.217Z,75.55
2023-04-30T08:12:03.222Z,75.93
2023-04-30T08:13:03.187Z,75.31
2023-04-30T08:14:03.173Z,74.90
2023-04-30T08:15:03.158Z,74.73
2023-04-30T08:16:03.158Z,73.61
2023-04-30T08:17:03.192Z,73.71
2023-04-30T08:18:03.188Z,73.81
2023-04-30T08:19:03.144Z,74.80
2023-04-30T08:20:03.090Z,74.02
2023-04-30T08:21:03.079Z,73.81
2023-04-30T08:22:03.067Z,73.71
2023-04-30T08:23:03.044Z,73.50
2023-04-30T08:24:03.081Z,73.91
2023-04-30T08:25:03.036Z,74.84
2023-04-30T08:26:03.032Z,73.78
2023-04-30T08:27:03.001Z,73.88
2023-04-30T08:28:02.992Z,73.98
2023-04-30T08:29:02.969Z,73.36
2023-04-30T08:30:02.958Z,71.90
2023-04-30T08:31:02.962Z,72.72
2023-04-30T08:32:02.963Z,72.41
2023-04-30T08:33:02.972Z,73.44
2023-04-30T08:34:02.894Z,73.68
2023-04-30T08:35:02.916Z,74.15
2023-04-30T08:36:02.881Z,73.68
2023-04-30T08:37:02.881Z,73.64
2023-04-30T08:38:02.832Z,73.13
2023-04-30T08:39:02.869Z,72.52
2023-04-30T08:40:02.862Z,73.85
2023-04-30T08:41:02.791Z,74.87
2023-04-30T08:42:02.778Z,74.63
2023-04-30T08:43:02.761Z,74.22
2023-04-30T08:44:02.755Z,74.49
2023-04-30T08:45:02.792Z,71.53
2023-04-30T08:46:02.807Z,70.26
2023-04-30T08:47:02.736Z,71.80
2023-04-30T08:48:02.748Z,73.64
2023-04-30T08:49:02.691Z,73.30
2023-04-30T08:50:02.825Z,74.63
2023-04-30T08:51:02.656Z,74.49
2023-04-30T08:52:02.664Z,73.68
2023-04-30T08:53:02.631Z,73.68
2023-04-30T08:54:02.626Z,74.25
2023-04-30T08:55:02.652Z,73.44
2023-04-30T08:56:02.646Z,72.89
2023-04-30T08:57:02.594Z,71.84
2023-04-30T08:58:02.590Z,71.22
2023-04-30T08:59:02.558Z,71.19
2023-04-30T09:00:02.546Z,71.39
2023-04-30T09:01:02.619Z,71.09
2023-04-30T09:02:02.612Z,71.39
2023-04-30T09:03:02.711Z,70.07
2023-04-30T09:04:02.566Z,69.83
2023-04-30T09:05:02.495Z,70.75
2023-04-30T09:06:02.580Z,68.61
2023-04-30T09:07:04.521Z,67.52
2023-04-30T09:08:04.163Z,67.72
2023-04-30T09:09:02.449Z,68.23
2023-04-30T09:10:02.440Z,69.56
2023-04-30T09:11:02.458Z,69.56
2023-04-30T09:12:02.431Z,69.86
2023-04-30T09:13:02.571Z,70.07
2023-04-30T09:14:02.399Z,69.35
2023-04-30T09:15:02.452Z,68.91
2023-04-30T09:16:02.461Z,69.29
2023-04-30T09:17:02.422Z,68.98
2023-04-30T09:18:02.379Z,68.13
2023-04-30T09:19:02.392Z,67.63
2023-04-30T09:20:02.341Z,68.17
2023-04-30T09:21:02.338Z,68.07
2023-04-30T09:22:02.418Z,66.82
2023-04-30T09:23:02.310Z,66.71
2023-04-30T09:24:02.299Z,67.73
2023-04-30T09:25:02.321Z,67.39
2023-04-30T09:26:02.283Z,66.07
2023-04-30T09:27:02.550Z,67.60
2023-04-30T09:28:02.273Z,65.69
2023-04-30T09:29:02.276Z,65.97
2023-04-30T09:30:02.252Z,66.88
2023-04-30T09:31:02.330Z,66.55
2023-04-30T09:32:02.268Z,66.14
2023-04-30T09:33:02.246Z,66.41
2023-04-30T09:34:02.220Z,65.19
2023-04-30T09:35:02.213Z,65.63
2023-04-30T09:36:02.204Z,65.36
2023-04-30T09:37:02.225Z,65.97
2023-04-30T09:38:02.194Z,66.04
2023-04-30T09:39:02.186Z,62.81
2023-04-30T09:40:02.172Z,63.04
2023-04-30T09:41:02.170Z,63.28
2023-04-30T09:42:02.189Z,64.53
2023-04-30T09:43:02.155Z,63.75
2023-04-30T09:44:02.184Z,65.95
2023-04-30T09:45:02.146Z,65.72
2023-04-30T09:46:02.140Z,65.52
2023-04-30T09:47:02.133Z,65.39
2023-04-30T09:48:15.902Z,64.34
2023-04-30T09:49:02.133Z,64.20
2023-04-30T09:50:02.139Z,62.78
2023-04-30T09:51:02.104Z,63.16
2023-04-30T09:52:02.102Z,63.23
2023-04-30T09:53:02.091Z,63.64
2023-04-30T09:54:02.089Z,64.25
2023-04-30T09:55:02.106Z,65.33
2023-04-30T09:56:02.068Z,65.10
2023-04-30T09:57:02.184Z,64.49
2023-04-30T09:58:02.055Z,63.95
2023-04-30T09:59:02.079Z,63.24
2023-04-30T10:00:02.089Z,62.91
2023-04-30T10:01:02.136Z,62.71
2023-04-30T10:02:02.045Z,62.40
2023-04-30T10:03:02.112Z,61.87
2023-04-30T10:04:02.047Z,59.36
2023-04-30T10:05:02.018Z,58.53
2023-04-30T10:06:02.076Z,60.99
2023-04-30T10:07:02.019Z,63.00
2023-04-30T10:08:01.995Z,63.00
2023-04-30T10:09:01.990Z,59.54
2023-04-30T10:10:01.992Z,60.25
2023-04-30T10:11:02.032Z,60.86
2023-04-30T10:12:02.002Z,61.24
2023-04-30T10:13:01.971Z,61.72
2023-04-30T10:14:01.961Z,61.62
2023-04-30T10:15:01.971Z,60.98
2023-04-30T10:16:02.040Z,60.75
2023-04-30T10:17:02.061Z,60.21
2023-04-30T10:18:02.039Z,57.88
2023-04-30T10:19:01.942Z,57.37
2023-04-30T10:20:01.938Z,60.31
2023-04-30T10:21:01.927Z,59.68
2023-04-30T10:22:01.973Z,58.56
2023-04-30T10:23:01.921Z,59.10
2023-04-30T10:24:01.918Z,60.11
2023-04-30T10:25:01.910Z,60.82
2023-04-30T10:26:02.056Z,59.33
2023-04-30T10:27:01.900Z,60.72
2023-04-30T10:28:04.500Z,60.93
2023-04-30T10:29:01.909Z,59.17
2023-04-30T10:30:01.883Z,59.00
2023-04-30T10:31:01.880Z,59.07
2023-04-30T10:32:02.028Z,59.38
2023-04-30T10:33:01.907Z,58.47
2023-04-30T10:34:01.876Z,58.94
2023-04-30T10:35:01.864Z,59.34
2023-04-30T10:36:01.856Z,57.35
2023-04-30T10:37:01.871Z,57.07
2023-04-30T10:38:01.882Z,57.71
2023-04-30T10:39:01.846Z,58.54
2023-04-30T10:40:01.848Z,61.99
2023-04-30T10:41:01.840Z,59.74
2023-04-30T10:42:01.822Z,60.35
2023-04-30T10:43:01.827Z,60.82
2023-04-30T10:44:02.272Z,61.02
2023-04-30T10:45:01.799Z,59.61
2023-04-30T10:46:01.808Z,58.97
2023-04-30T10:47:01.795Z,57.75
2023-04-30T10:48:01.891Z,57.93
2023-04-30T10:49:01.785Z,57.40
2023-04-30T10:50:01.795Z,55.98
2023-04-30T10:51:01.796Z,55.95
2023-04-30T10:52:01.752Z,56.63
2023-04-30T10:53:01.753Z,56.02
2023-04-30T10:54:01.767Z,53.60
2023-04-30T10:55:01.733Z,53.93
2023-04-30T10:56:01.728Z,52.66
2023-04-30T10:57:01.727Z,53.60
2023-04-30T10:58:01.719Z,55.55
2023-04-30T10:59:01.754Z,55.60
2023-04-30T11:00:01.703Z,56.37
2023-04-30T11:01:01.741Z,57.43
2023-04-30T11:02:01.803Z,58.33
2023-04-30T11:03:01.735Z,59.34
2023-04-30T11:04:01.699Z,59.54
2023-04-30T11:05:01.713Z,58.53
2023-04-30T11:06:01.715Z,57.92
2023-04-30T11:07:01.841Z,58.53
2023-04-30T11:08:01.659Z,59.64
2023-04-30T11:09:01.706Z,58.02
2023-04-30T11:10:01.626Z,58.42
2023-04-30T11:11:01.808Z,58.80
2023-04-30T11:12:01.610Z,56.39
2023-04-30T11:13:01.794Z,56.47
2023-04-30T11:14:01.875Z,56.80
2023-04-30T11:15:01.643Z,55.88
2023-04-30T11:16:01.902Z,56.16
2023-04-30T11:17:01.567Z,57.97
2023-04-30T11:18:01.610Z,55.02
2023-04-30T11:19:01.609Z,55.12
2023-04-30T11:20:01.561Z,55.10
2023-04-30T11:21:01.548Z,56.79
2023-04-30T11:22:01.528Z,56.03
2023-04-30T11:23:01.525Z,54.97
2023-04-30T11:24:01.515Z,51.93
2023-04-30T11:25:01.540Z,51.93
2023-04-30T11:26:01.517Z,50.92
2023-04-30T11:27:01.496Z,51.83
2023-04-30T11:28:01.496Z,53.02
2023-04-30T11:29:01.557Z,52.01
2023-04-30T11:30:01.605Z,50.03
2023-04-30T11:31:01.524Z,53.19
2023-04-30T11:32:01.547Z,53.88
2023-04-30T11:33:01.469Z,54.69
2023-04-30T11:34:01.465Z,55.98
2023-04-30T11:35:01.452Z,56.03
2023-04-30T11:36:01.471Z,55.37
2023-04-30T11:37:01.438Z,54.84
2023-04-30T11:38:01.444Z,54.51
2023-04-30T11:39:01.424Z,55.09
2023-04-30T11:40:01.449Z,53.83
2023-04-30T11:41:01.453Z,52.06
2023-04-30T11:42:01.414Z,50.50
2023-04-30T11:43:01.400Z,50.37
2023-04-30T11:44:01.396Z,48.79
2023-04-30T11:45:01.390Z,48.61
2023-04-30T11:46:01.404Z,50.37
2023-04-30T11:47:01.472Z,52.06
2023-04-30T11:48:01.386Z,53.70
2023-04-30T11:49:01.357Z,54.41
2023-04-30T11:50:01.350Z,54.28
2023-04-30T11:51:01.344Z,53.07
2023-04-30T11:52:01.391Z,51.15
2023-04-30T11:53:01.372Z,51.83
2023-04-30T11:54:01.323Z,52.44
2023-04-30T11:55:01.339Z,52.72
2023-04-30T11:56:01.311Z,50.95
2023-04-30T11:57:01.304Z,50.27
2023-04-30T11:58:01.341Z,49.96
2023-04-30T11:59:01.306Z,49.18
2023-04-30T12:00:01.284Z,50.62
2023-04-30T12:01:01.276Z,50.95
2023-04-30T12:02:01.345Z,52.59
2023-04-30T12:03:01.490Z,53.14
2023-04-30T12:04:01.315Z,53.98
2023-04-30T12:05:01.297Z,54.99
2023-04-30T12:06:01.295Z,56.18
2023-04-30T12:07:01.252Z,55.98
2023-04-30T12:08:01.260Z,54.94
2023-04-30T12:09:01.253Z,54.69
2023-04-30T12:10:01.220Z,53.17
2023-04-30T12:11:01.220Z,52.39
2023-04-30T12:12:01.213Z,52.74
2023-04-30T12:13:01.267Z,54.49
2023-04-30T12:14:01.231Z,56.82
2023-04-30T12:15:01.186Z,55.90
2023-04-30T12:16:01.184Z,56.21
2023-04-30T12:17:01.281Z,54.99
2023-04-30T12:18:01.211Z,56.54
2023-04-30T12:19:01.170Z,58.03
2023-04-30T12:20:01.177Z,58.20
2023-04-30T12:21:01.149Z,57.70
2023-04-30T12:22:01.145Z,58.07
2023-04-30T12:23:01.141Z,55.22
2023-04-30T12:24:03.288Z,54.71
2023-04-30T12:25:01.185Z,55.73
2023-04-30T12:26:01.113Z,54.79
2023-04-30T12:27:01.121Z,53.17
2023-04-30T12:28:01.110Z,54.08
2023-04-30T12:29:01.132Z,52.67
2023-04-30T12:30:01.170Z,52.99
2023-04-30T12:31:01.085Z,55.09
2023-04-30T12:32:01.156Z,54.76
2023-04-30T12:33:01.178Z,52.94
2023-04-30T12:34:01.078Z,52.64
2023-04-30T12:35:01.064Z,52.89
2023-04-30T12:36:01.106Z,54.36
2023-04-30T12:37:01.046Z,55.24
2023-04-30T12:38:01.041Z,55.35
2023-04-30T12:39:01.023Z,54.91
2023-04-30T12:40:01.033Z,54.99
2023-04-30T12:41:02.007Z,54.38
2023-04-30T12:42:01.075Z,54.49
2023-04-30T12:43:01.003Z,53.55
2023-04-30T12:44:00.991Z,53.05
2023-04-30T12:45:00.988Z,52.74
2023-04-30T12:46:00.995Z,53.75
2023-04-30T12:47:01.112Z,53.27
2023-04-30T12:48:01.058Z,54.36
2023-04-30T12:49:00.970Z,54.46
2023-04-30T12:50:00.974Z,54.43
2023-04-30T12:51:00.963Z,53.52
2023-04-30T12:52:00.938Z,52.01